createdAt,value
2018-03-26T00:00:03.108Z,6.65
2018-03-26T00:01:03.163Z,6.76
2018-03-26T00:02:03.219Z,6.91
2018-03-26T00:03:03.276Z,6.91
2018-03-26T00:04:03.332Z,6.94
2018-03-26T00:05:03.388Z,6.94
2018-03-26T00:06:03.446Z,7.00
2018-03-26T00:07:03.501Z,6.81
2018-03-26T00:08:03.557Z,6.65
2018-03-26T00:09:03.613Z,6.57
2018-03-26T00:10:03.670Z,6.61
2018-03-26T00:11:03.726Z,6.53
2018-03-26T00:12:03.782Z,6.50
2018-03-26T00:13:03.837Z,6.38
2018-03-26T00:14:03.894Z,6.39
2018-03-26T00:15:03.949Z,6.28
2018-03-26T00:16:04.005Z,6.39
2018-03-26T00:17:04.062Z,6.33
2018-03-26T00:18:04.118Z,6.33
2018-03-26T00:19:04.174Z,6.36
2018-03-26T00:20:04.230Z,6.36
2018-03-26T00:21:04.287Z,6.36
2018-03-26T00:22:04.343Z,6.38
2018-03-26T00:23:04.400Z,6.30
2018-03-26T00:24:04.454Z,6.21
2018-03-26T00:25:04.511Z,6.08
2018-03-26T00:26:04.566Z,6.03
2018-03-26T00:27:04.631Z,5.95
2018-03-26T00:28:04.677Z,5.92
2018-03-26T00:29:04.734Z,5.92
2018-03-26T00:30:04.790Z,5.90
2018-03-26T00:31:05.148Z,5.95
2018-03-26T00:32:04.906Z,6.02
2018-03-26T00:33:04.959Z,5.99
2018-03-26T00:34:05.014Z,6.01
2018-03-26T00:35:05.075Z,5.95
2018-03-26T00:36:05.126Z,5.88
2018-03-26T00:37:05.182Z,5.87
2018-03-26T00:38:05.239Z,5.83
2018-03-26T00:39:05.294Z,5.73
2018-03-26T00:40:05.351Z,5.81
2018-03-26T00:41:05.404Z,5.84
2018-03-26T00:42:05.462Z,5.85
2018-03-26T00:43:05.518Z,5.77
2018-03-26T00:44:05.572Z,5.81
2018-03-26T00:45:05.631Z,5.77
2018-03-26T00:46:05.685Z,5.74
2018-03-26T00:47:05.740Z,5.78
2018-03-26T00:48:05.796Z,5.90
2018-03-26T00:49:05.852Z,5.83
2018-03-26T00:50:05.908Z,6.02
2018-03-26T00:51:05.964Z,6.05
2018-03-26T00:52:06.020Z,6.11
2018-03-26T00:53:06.075Z,6.17
2018-03-26T00:54:06.135Z,6.14
2018-03-26T00:55:06.187Z,6.16
2018-03-26T00:56:06.243Z,6.21
2018-03-26T00:57:06.297Z,6.11
2018-03-26T00:58:06.354Z,6.10
2018-03-26T00:59:06.408Z,6.08
2018-03-26T01:00:06.462Z,6.16
2018-03-26T01:01:06.520Z,6.19
2018-03-26T01:02:06.576Z,6.17
2018-03-26T01:03:06.630Z,6.20
2018-03-26T01:04:06.686Z,6.11
2018-03-26T01:05:06.892Z,5.98
2018-03-26T01:06:06.797Z,6.02
2018-03-26T01:07:06.853Z,5.98
2018-03-26T01:08:06.908Z,5.93
2018-03-26T01:09:06.963Z,5.85
2018-03-26T01:10:07.271Z,5.81
2018-03-26T01:11:07.075Z,5.78
2018-03-26T01:12:07.129Z,5.66
2018-03-26T01:13:07.186Z,5.70
2018-03-26T01:14:07.240Z,5.60
2018-03-26T01:15:07.296Z,5.70
2018-03-26T01:16:07.352Z,5.60
2018-03-26T01:17:07.407Z,5.60
2018-03-26T01:18:07.463Z,5.60
2018-03-26T01:19:07.521Z,5.45
2018-03-26T01:20:07.573Z,5.48
2018-03-26T01:21:07.629Z,5.48
2018-03-26T01:22:07.684Z,5.49
2018-03-26T01:23:07.745Z,5.42
2018-03-26T01:24:07.794Z,5.48
2018-03-26T01:25:07.899Z,5.49
2018-03-26T01:26:07.906Z,5.40
2018-03-26T01:27:07.961Z,5.32
2018-03-26T01:28:08.015Z,5.37
2018-03-26T01:29:08.071Z,5.40
2018-03-26T01:30:08.125Z,5.49
2018-03-26T01:31:08.182Z,5.51
2018-03-26T01:32:08.236Z,5.38
2018-03-26T01:33:08.292Z,5.44
2018-03-26T01:34:08.346Z,5.48
2018-03-26T01:35:08.403Z,5.47
2018-03-26T01:36:08.457Z,5.44
2018-03-26T01:37:08.512Z,5.47
2018-03-26T01:38:08.568Z,5.47
2018-03-26T01:39:08.622Z,5.44
2018-03-26T01:40:08.676Z,5.47
2018-03-26T01:41:08.733Z,5.52
2018-03-26T01:42:08.788Z,5.44
2018-03-26T01:43:08.845Z,5.49
2018-03-26T01:44:08.899Z,5.51
2018-03-26T01:45:08.954Z,5.35
2018-03-26T01:46:09.010Z,5.35
2018-03-26T01:47:09.063Z,5.40
2018-03-26T01:48:09.119Z,5.40
2018-03-26T01:49:09.175Z,5.35
2018-03-26T01:50:09.230Z,5.37
2018-03-26T01:51:09.284Z,5.35
2018-03-26T01:52:09.339Z,5.51
2018-03-26T01:53:09.393Z,5.35
2018-03-26T01:54:09.451Z,5.51
2018-03-26T01:55:09.507Z,5.38
2018-03-26T01:56:09.561Z,5.44
2018-03-26T01:57:09.615Z,5.56
2018-03-26T01:58:09.671Z,5.48
2018-03-26T01:59:09.725Z,5.52
2018-03-26T02:00:09.780Z,5.47
2018-03-26T02:01:09.837Z,5.48
2018-03-26T02:02:10.143Z,5.38
2018-03-26T02:03:09.947Z,5.42
2018-03-26T02:04:10.002Z,5.40
2018-03-26T02:05:10.059Z,5.40
2018-03-26T02:06:10.114Z,5.37
2018-03-26T02:07:10.169Z,5.41
2018-03-26T02:08:10.224Z,5.38
2018-03-26T02:09:10.280Z,5.42
2018-03-26T02:10:10.335Z,5.47
2018-03-26T02:11:10.391Z,5.51
2018-03-26T02:12:10.450Z,5.47
2018-03-26T02:13:10.753Z,5.52
2018-03-26T02:14:10.558Z,5.60
2018-03-26T02:15:10.612Z,5.67
2018-03-26T02:16:10.669Z,5.78
2018-03-26T02:17:10.727Z,5.80
2018-03-26T02:18:10.781Z,5.80
2018-03-26T02:19:10.835Z,5.88
2018-03-26T02:20:10.890Z,5.85
2018-03-26T02:21:10.947Z,5.90
2018-03-26T02:22:11.002Z,5.84
2018-03-26T02:23:11.058Z,5.75
2018-03-26T02:24:11.113Z,5.78
2018-03-26T02:25:11.175Z,5.78
2018-03-26T02:26:11.225Z,5.73
2018-03-26T02:27:11.281Z,5.69
2018-03-26T02:28:11.336Z,5.75
2018-03-26T02:29:11.392Z,5.66
2018-03-26T02:30:11.449Z,5.67
2018-03-26T02:31:11.505Z,5.73
2018-03-26T02:32:11.560Z,5.67
2018-03-26T02:33:11.616Z,5.69
2018-03-26T02:34:11.671Z,5.77
2018-03-26T02:35:11.727Z,5.69
2018-03-26T02:36:11.783Z,5.75
2018-03-26T02:37:11.838Z,5.59
2018-03-26T02:38:11.896Z,5.65
2018-03-26T02:39:11.951Z,5.74
2018-03-26T02:40:12.005Z,5.75
2018-03-26T02:41:12.060Z,5.67
2018-03-26T02:42:12.130Z,5.67
2018-03-26T02:43:12.174Z,5.70
2018-03-26T02:44:12.230Z,5.73
2018-03-26T02:45:12.286Z,5.75
2018-03-26T02:46:12.343Z,5.77
2018-03-26T02:47:12.398Z,5.75
2018-03-26T02:48:12.452Z,5.81
2018-03-26T02:49:12.508Z,5.83
2018-03-26T02:50:12.565Z,5.75
2018-03-26T02:51:12.622Z,5.73
2018-03-26T02:52:12.677Z,5.74
2018-03-26T02:53:12.732Z,5.74
2018-03-26T02:54:12.789Z,5.70
2018-03-26T02:55:12.846Z,5.73
2018-03-26T02:56:12.915Z,5.70
2018-03-26T02:57:12.956Z,5.70
2018-03-26T02:58:13.015Z,5.78
2018-03-26T02:59:13.097Z,5.74
2018-03-26T03:00:13.123Z,5.67
2018-03-26T03:01:13.185Z,5.70
2018-03-26T03:02:13.237Z,5.65
2018-03-26T03:03:13.293Z,5.74
2018-03-26T03:04:13.350Z,5.75
2018-03-26T03:05:13.406Z,5.74
2018-03-26T03:06:13.461Z,5.75
2018-03-26T03:07:13.517Z,5.67
2018-03-26T03:08:13.574Z,5.70
2018-03-26T03:09:13.630Z,5.63
2018-03-26T03:10:13.685Z,5.75
2018-03-26T03:11:13.741Z,5.74
2018-03-26T03:12:13.799Z,5.77
2018-03-26T03:13:13.852Z,5.77
2018-03-26T03:14:13.909Z,5.69
2018-03-26T03:15:14.217Z,5.77
2018-03-26T03:16:14.020Z,5.78
2018-03-26T03:17:14.076Z,5.74
2018-03-26T03:18:14.133Z,5.75
2018-03-26T03:19:14.190Z,5.74
2018-03-26T03:20:14.244Z,5.70
2018-03-26T03:21:14.301Z,5.63
2018-03-26T03:22:14.358Z,5.73
2018-03-26T03:23:14.414Z,5.65
2018-03-26T03:24:14.470Z,5.67
2018-03-26T03:25:14.524Z,5.74
2018-03-26T03:26:14.582Z,5.70
2018-03-26T03:27:14.638Z,5.74
2018-03-26T03:28:14.693Z,5.65
2018-03-26T03:29:14.749Z,5.59
2018-03-26T03:30:14.817Z,5.58
2018-03-26T03:31:14.863Z,5.49
2018-03-26T03:32:14.916Z,5.49
2018-03-26T03:33:14.974Z,5.51
2018-03-26T03:34:15.029Z,5.47
2018-03-26T03:35:15.086Z,5.48
2018-03-26T03:36:15.141Z,5.42
2018-03-26T03:37:15.197Z,5.42
2018-03-26T03:38:15.253Z,5.42
2018-03-26T03:39:15.309Z,5.48
2018-03-26T03:40:15.364Z,5.44
2018-03-26T03:41:15.420Z,5.55
2018-03-26T03:42:15.476Z,5.49
2018-03-26T03:43:15.532Z,5.51
2018-03-26T03:44:15.587Z,5.42
2018-03-26T03:45:15.643Z,5.49
2018-03-26T03:46:15.699Z,5.47
2018-03-26T03:47:15.754Z,5.44
2018-03-26T03:48:15.809Z,5.56
2018-03-26T03:49:15.866Z,5.51
2018-03-26T03:50:15.920Z,5.47
2018-03-26T03:51:15.977Z,5.48
2018-03-26T03:52:16.032Z,5.58
2018-03-26T03:53:16.088Z,5.55
2018-03-26T03:54:16.172Z,5.58
2018-03-26T03:55:16.199Z,5.55
2018-03-26T03:56:16.253Z,5.66
2018-03-26T03:57:16.330Z,5.60
2018-03-26T03:58:16.385Z,5.62
2018-03-26T03:59:16.420Z,5.60
2018-03-26T04:00:16.476Z,5.65
2018-03-26T04:01:16.896Z,5.63
2018-03-26T04:02:16.599Z,5.70
2018-03-26T04:03:16.642Z,5.65
2018-03-26T04:04:16.697Z,5.67
2018-03-26T04:05:16.759Z,5.62
2018-03-26T04:06:16.810Z,5.73
2018-03-26T04:07:16.865Z,5.70
2018-03-26T04:08:16.926Z,5.69
2018-03-26T04:09:16.977Z,5.77
2018-03-26T04:10:17.038Z,5.70
2018-03-26T04:11:17.091Z,5.66
2018-03-26T04:12:17.143Z,5.66
2018-03-26T04:13:17.199Z,5.59
2018-03-26T04:14:17.256Z,5.56
2018-03-26T04:15:17.310Z,5.56
2018-03-26T04:16:17.367Z,5.60
2018-03-26T04:17:17.422Z,5.63
2018-03-26T04:18:17.477Z,5.63
2018-03-26T04:19:17.534Z,5.65
2018-03-26T04:20:17.590Z,5.63
2018-03-26T04:21:17.645Z,5.67
2018-03-26T04:22:17.711Z,5.70
2018-03-26T04:23:17.758Z,5.77
2018-03-26T04:24:17.812Z,5.66
2018-03-26T04:25:17.868Z,5.66
2018-03-26T04:26:17.924Z,5.58
2018-03-26T04:27:17.980Z,5.56
2018-03-26T04:28:18.035Z,5.52
2018-03-26T04:29:18.090Z,5.51
2018-03-26T04:30:18.147Z,5.60
2018-03-26T04:31:18.203Z,5.59
2018-03-26T04:32:18.263Z,5.67
2018-03-26T04:33:18.564Z,5.63
2018-03-26T04:34:18.369Z,5.66
2018-03-26T04:35:18.425Z,5.69
2018-03-26T04:36:18.480Z,5.65
2018-03-26T04:37:18.535Z,5.62
2018-03-26T04:38:18.592Z,5.60
2018-03-26T04:39:18.648Z,5.65
2018-03-26T04:40:18.702Z,5.52
2018-03-26T04:41:18.758Z,5.44
2018-03-26T04:42:18.815Z,5.47
2018-03-26T04:43:18.871Z,5.55
2018-03-26T04:44:18.924Z,5.51
2018-03-26T04:45:18.982Z,5.58
2018-03-26T04:46:19.038Z,5.51
2018-03-26T04:47:19.093Z,5.51
2018-03-26T04:48:19.149Z,5.52
2018-03-26T04:49:19.203Z,5.55
2018-03-26T04:50:19.263Z,5.59
2018-03-26T04:51:19.316Z,5.59
2018-03-26T04:52:19.371Z,5.62
2018-03-26T04:53:19.427Z,5.58
2018-03-26T04:54:19.487Z,5.60
2018-03-26T04:55:19.538Z,5.63
2018-03-26T04:56:19.595Z,5.62
2018-03-26T04:57:19.648Z,5.58
2018-03-26T04:58:19.704Z,5.66
2018-03-26T04:59:19.760Z,5.67
2018-03-26T05:00:19.815Z,5.73
2018-03-26T05:01:19.871Z,5.69
2018-03-26T05:02:19.926Z,5.60
2018-03-26T05:03:19.984Z,5.60
2018-03-26T05:04:20.038Z,5.56
2018-03-26T05:05:20.093Z,5.59
2018-03-26T05:06:20.149Z,5.56
2018-03-26T05:07:20.204Z,5.60
2018-03-26T05:08:20.259Z,5.59
2018-03-26T05:09:20.315Z,5.65
2018-03-26T05:10:20.370Z,5.58
2018-03-26T05:11:20.450Z,5.63
2018-03-26T05:12:20.487Z,5.70
2018-03-26T05:13:20.574Z,5.66
2018-03-26T05:14:20.611Z,5.70
2018-03-26T05:15:20.649Z,5.74
2018-03-26T05:16:20.707Z,5.78
2018-03-26T05:17:20.764Z,5.78
2018-03-26T05:18:20.816Z,5.81
2018-03-26T05:19:20.871Z,5.75
2018-03-26T05:20:20.928Z,5.74
2018-03-26T05:21:21.311Z,5.77
2018-03-26T05:22:21.039Z,5.80
2018-03-26T05:23:21.095Z,5.78
2018-03-26T05:24:21.149Z,5.80
2018-03-26T05:25:21.206Z,5.77
2018-03-26T05:26:21.685Z,5.67
2018-03-26T05:27:21.317Z,5.84
2018-03-26T05:28:21.375Z,5.77
2018-03-26T05:29:21.578Z,5.74
2018-03-26T05:30:21.486Z,5.85
2018-03-26T05:31:21.592Z,5.81
2018-03-26T05:32:21.595Z,5.83
2018-03-26T05:33:21.658Z,5.88
2018-03-26T05:34:21.707Z,5.85
2018-03-26T05:35:21.915Z,5.84
2018-03-26T05:36:22.192Z,5.88
2018-03-26T05:37:21.880Z,5.92
2018-03-26T05:38:21.932Z,5.88
2018-03-26T05:39:21.990Z,5.85
2018-03-26T05:40:22.045Z,5.83
2018-03-26T05:41:22.099Z,5.93
2018-03-26T05:42:22.156Z,5.84
2018-03-26T05:43:22.213Z,5.81
2018-03-26T05:44:22.267Z,5.81
2018-03-26T05:45:22.324Z,5.81
2018-03-26T05:46:22.380Z,5.87
2018-03-26T05:47:22.438Z,5.88
2018-03-26T05:48:22.499Z,5.83
2018-03-26T05:49:22.548Z,5.81
2018-03-26T05:50:22.604Z,5.81
2018-03-26T05:51:22.665Z,5.70
2018-03-26T05:52:22.714Z,5.75
2018-03-26T05:53:22.772Z,5.74
2018-03-26T05:54:22.828Z,5.60
2018-03-26T05:55:22.885Z,5.48
2018-03-26T05:56:22.940Z,5.56
2018-03-26T05:57:22.997Z,5.62
2018-03-26T05:58:23.541Z,5.63
2018-03-26T05:59:23.640Z,5.63
2018-03-26T06:00:23.164Z,5.73
2018-03-26T06:01:23.972Z,5.77
2018-03-26T06:02:23.904Z,5.70
2018-03-26T06:03:24.421Z,5.78
2018-03-26T06:04:24.010Z,5.74
2018-03-26T06:05:24.015Z,5.81
2018-03-26T06:06:24.180Z,5.85
2018-03-26T06:07:24.031Z,5.87
2018-03-26T06:08:23.613Z,5.87
2018-03-26T06:09:23.667Z,5.98
2018-03-26T06:10:23.724Z,5.99
2018-03-26T06:11:23.777Z,5.84
2018-03-26T06:12:23.837Z,5.96
2018-03-26T06:13:23.890Z,5.96
2018-03-26T06:14:23.946Z,5.87
2018-03-26T06:15:24.001Z,5.87
2018-03-26T06:16:24.057Z,5.75
2018-03-26T06:17:24.114Z,5.69
2018-03-26T06:18:24.168Z,5.62
2018-03-26T06:19:24.226Z,5.60
2018-03-26T06:20:24.283Z,5.69
2018-03-26T06:21:24.337Z,5.67
2018-03-26T06:22:24.393Z,5.70
2018-03-26T06:23:24.465Z,5.66
2018-03-26T06:24:24.504Z,5.63
2018-03-26T06:25:24.603Z,5.66
2018-03-26T06:26:24.617Z,5.77
2018-03-26T06:27:24.673Z,5.74
2018-03-26T06:28:24.727Z,5.70
2018-03-26T06:29:24.785Z,5.65
2018-03-26T06:30:24.840Z,5.62
2018-03-26T06:31:24.896Z,5.66
2018-03-26T06:32:24.952Z,5.52
2018-03-26T06:33:25.008Z,5.65
2018-03-26T06:34:25.064Z,5.62
2018-03-26T06:35:25.120Z,5.55
2018-03-26T06:36:25.175Z,5.59
2018-03-26T06:37:25.230Z,5.70
2018-03-26T06:38:25.305Z,5.70
2018-03-26T06:39:25.343Z,5.74
2018-03-26T06:40:25.402Z,5.74
2018-03-26T06:41:25.455Z,5.81
2018-03-26T06:42:25.509Z,5.81
2018-03-26T06:43:25.567Z,5.80
2018-03-26T06:44:25.621Z,5.78
2018-03-26T06:45:25.678Z,5.81
2018-03-26T06:46:25.734Z,5.70
2018-03-26T06:47:25.790Z,5.78
2018-03-26T06:48:25.854Z,5.69
2018-03-26T06:49:25.901Z,5.84
2018-03-26T06:50:25.958Z,5.78
2018-03-26T06:51:26.014Z,5.77
2018-03-26T06:52:26.070Z,5.88
2018-03-26T06:53:26.125Z,5.85
2018-03-26T06:54:26.182Z,5.99
2018-03-26T06:55:26.237Z,6.03
2018-03-26T06:56:26.298Z,6.10
2018-03-26T06:57:26.349Z,6.32
2018-03-26T06:58:26.406Z,6.33
2018-03-26T06:59:26.465Z,6.28
2018-03-26T07:00:26.518Z,6.43
2018-03-26T07:01:26.574Z,6.48
2018-03-26T07:02:26.630Z,6.51
2018-03-26T07:03:26.687Z,6.51
2018-03-26T07:04:26.743Z,6.60
2018-03-26T07:05:26.798Z,6.68
2018-03-26T07:06:26.858Z,6.76
2018-03-26T07:07:26.913Z,6.81
2018-03-26T07:08:26.971Z,6.96
2018-03-26T07:09:27.026Z,7.01
2018-03-26T07:10:27.083Z,7.05
2018-03-26T07:11:27.144Z,7.15
2018-03-26T07:12:27.240Z,7.37
2018-03-26T07:13:27.254Z,7.42
2018-03-26T07:14:27.310Z,7.36
2018-03-26T07:15:27.368Z,7.33
2018-03-26T07:16:27.425Z,7.47
2018-03-26T07:17:27.481Z,7.54
2018-03-26T07:18:28.003Z,7.63
2018-03-26T07:19:27.599Z,7.62
2018-03-26T07:20:27.654Z,7.77
2018-03-26T07:21:27.718Z,7.70
2018-03-26T07:22:27.768Z,7.62
2018-03-26T07:23:27.831Z,7.79
2018-03-26T07:24:27.884Z,7.81
2018-03-26T07:25:27.947Z,7.69
2018-03-26T07:26:28.003Z,7.45
2018-03-26T07:27:28.059Z,7.48
2018-03-26T07:28:28.142Z,7.57
2018-03-26T07:29:28.178Z,7.63
2018-03-26T07:30:28.233Z,7.69
2018-03-26T07:31:28.289Z,7.74
2018-03-26T07:32:28.348Z,7.76
2018-03-26T07:33:28.406Z,7.71
2018-03-26T07:34:28.464Z,7.70
2018-03-26T07:35:28.522Z,7.67
2018-03-26T07:36:28.580Z,7.84
2018-03-26T07:37:28.639Z,7.85
2018-03-26T07:38:28.698Z,7.96
2018-03-26T07:39:28.756Z,8.06
2018-03-26T07:40:28.812Z,7.99
2018-03-26T07:41:28.871Z,8.00
2018-03-26T07:42:28.933Z,7.96
2018-03-26T07:43:28.991Z,7.94
2018-03-26T07:44:29.047Z,8.02
2018-03-26T07:45:29.105Z,8.10
2018-03-26T07:46:29.174Z,8.13
2018-03-26T07:47:29.222Z,8.17
2018-03-26T07:48:29.284Z,8.10
2018-03-26T07:49:29.339Z,8.09
2018-03-26T07:50:29.398Z,8.10
2018-03-26T07:51:29.713Z,8.12
2018-03-26T07:52:29.513Z,8.18
2018-03-26T07:53:29.572Z,8.22
2018-03-26T07:54:29.633Z,8.20
2018-03-26T07:55:29.694Z,8.25
2018-03-26T07:56:29.749Z,8.24
2018-03-26T07:57:29.809Z,8.28
2018-03-26T07:58:29.876Z,8.31
2018-03-26T07:59:29.978Z,8.43
2018-03-26T08:00:29.984Z,8.36
2018-03-26T08:01:30.043Z,8.50
2018-03-26T08:02:30.599Z,8.45
2018-03-26T08:03:30.160Z,8.42
2018-03-26T08:04:30.217Z,8.54
2018-03-26T08:05:30.278Z,8.58
2018-03-26T08:06:30.336Z,8.63
2018-03-26T08:07:30.395Z,8.55
2018-03-26T08:08:30.453Z,8.61
2018-03-26T08:09:30.515Z,8.55
2018-03-26T08:10:30.587Z,8.75
2018-03-26T08:11:30.632Z,8.68
2018-03-26T08:12:30.690Z,8.85
2018-03-26T08:13:30.750Z,8.91
2018-03-26T08:14:30.808Z,8.97
2018-03-26T08:15:30.872Z,9.03
2018-03-26T08:16:30.976Z,8.98
2018-03-26T08:17:30.988Z,8.96
2018-03-26T08:18:31.295Z,8.88
2018-03-26T08:19:31.105Z,9.12
2018-03-26T08:20:31.164Z,9.13
2018-03-26T08:21:31.223Z,9.27
2018-03-26T08:22:31.284Z,9.35
2018-03-26T08:23:31.347Z,9.23
2018-03-26T08:24:31.405Z,9.32
2018-03-26T08:25:31.467Z,9.38
2018-03-26T08:26:31.522Z,9.50
2018-03-26T08:27:31.583Z,9.50
2018-03-26T08:28:31.642Z,9.70
2018-03-26T08:29:31.703Z,9.71
2018-03-26T08:30:31.761Z,9.68
2018-03-26T08:31:31.823Z,9.95
2018-03-26T08:32:31.881Z,9.98
2018-03-26T08:33:31.947Z,10.13
2018-03-26T08:34:32.003Z,10.17
2018-03-26T08:35:32.060Z,10.10
2018-03-26T08:36:32.152Z,10.16
2018-03-26T08:37:32.181Z,10.32
2018-03-26T08:38:32.242Z,10.32
2018-03-26T08:39:32.303Z,10.49
2018-03-26T08:40:32.362Z,10.43
2018-03-26T08:41:32.423Z,10.75
2018-03-26T08:42:32.605Z,10.73
2018-03-26T08:43:32.545Z,10.80
2018-03-26T08:44:32.603Z,10.86
2018-03-26T08:45:32.663Z,10.98
2018-03-26T08:46:33.338Z,11.12
2018-03-26T08:47:33.578Z,10.83
2018-03-26T08:48:33.520Z,10.86
2018-03-26T08:49:33.436Z,10.55
2018-03-26T08:50:33.650Z,10.63
2018-03-26T08:51:33.646Z,10.38
2018-03-26T08:52:33.545Z,10.46
2018-03-26T08:53:33.751Z,10.60
2018-03-26T08:54:33.710Z,10.65
2018-03-26T08:55:33.861Z,10.66
2018-03-26T08:56:33.384Z,10.54
2018-03-26T08:57:33.908Z,10.63
2018-03-26T08:58:34.009Z,10.39
2018-03-26T08:59:33.934Z,10.58
2018-03-26T09:00:34.067Z,10.66
2018-03-26T09:01:33.634Z,10.58
2018-03-26T09:02:34.387Z,10.46
2018-03-26T09:03:34.337Z,10.38
2018-03-26T09:04:33.813Z,10.51
2018-03-26T09:05:33.873Z,10.52
2018-03-26T09:06:33.933Z,10.39
2018-03-26T09:07:33.997Z,10.63
2018-03-26T09:08:34.580Z,10.76
2018-03-26T09:09:34.639Z,10.84
2018-03-26T09:10:34.864Z,10.60
2018-03-26T09:11:34.841Z,10.83
2018-03-26T09:12:34.897Z,10.87
2018-03-26T09:13:34.814Z,10.98
2018-03-26T09:14:35.143Z,10.93
2018-03-26T09:15:35.015Z,10.86
2018-03-26T09:16:35.179Z,10.99
2018-03-26T09:17:34.663Z,11.21
2018-03-26T09:18:35.220Z,11.20
2018-03-26T09:19:34.722Z,11.28
2018-03-26T09:20:35.339Z,11.46
2018-03-26T09:21:35.301Z,11.46
2018-03-26T09:22:35.052Z,11.51
2018-03-26T09:23:34.964Z,11.66
2018-03-26T09:24:35.023Z,11.53
2018-03-26T09:25:35.085Z,11.67
2018-03-26T09:26:35.145Z,11.19
2018-03-26T09:27:35.208Z,11.01
2018-03-26T09:28:35.269Z,11.09
2018-03-26T09:29:35.328Z,11.27
2018-03-26T09:30:35.390Z,11.41
2018-03-26T09:31:35.998Z,11.56
2018-03-26T09:32:35.513Z,11.46
2018-03-26T09:33:35.574Z,11.64
2018-03-26T09:34:35.636Z,11.77
2018-03-26T09:35:35.697Z,11.82
2018-03-26T09:36:35.802Z,11.85
2018-03-26T09:37:35.820Z,11.81
2018-03-26T09:38:35.881Z,11.70
2018-03-26T09:39:35.943Z,11.84
2018-03-26T09:40:36.061Z,11.75
2018-03-26T09:41:36.066Z,11.66
2018-03-26T09:42:36.128Z,11.60
2018-03-26T09:43:36.189Z,11.66
2018-03-26T09:44:36.252Z,11.77
2018-03-26T09:45:36.312Z,11.85
2018-03-26T09:46:36.373Z,11.79
2018-03-26T09:47:36.436Z,11.67
2018-03-26T09:48:36.496Z,11.62
2018-03-26T09:49:36.558Z,11.66
2018-03-26T09:50:36.621Z,11.81
2018-03-26T09:51:36.681Z,11.90
2018-03-26T09:52:36.743Z,12.05
2018-03-26T09:53:36.804Z,12.18
2018-03-26T09:54:36.881Z,12.16
2018-03-26T09:55:36.928Z,12.01
2018-03-26T09:56:37.000Z,12.07
2018-03-26T09:57:37.057Z,11.96
2018-03-26T09:58:37.121Z,12.13
2018-03-26T09:59:37.181Z,12.00
2018-03-26T10:00:37.259Z,11.77
2018-03-26T10:01:37.708Z,11.98
2018-03-26T10:02:37.359Z,12.11
2018-03-26T10:03:37.421Z,12.22
2018-03-26T10:04:37.481Z,12.18
2018-03-26T10:05:37.568Z,11.84
2018-03-26T10:06:37.605Z,11.78
2018-03-26T10:07:37.817Z,11.60
2018-03-26T10:08:37.728Z,11.59
2018-03-26T10:09:37.789Z,11.48
2018-03-26T10:10:37.850Z,11.66
2018-03-26T10:11:37.913Z,11.63
2018-03-26T10:12:37.975Z,11.75
2018-03-26T10:13:38.034Z,11.75
2018-03-26T10:14:38.097Z,11.64
2018-03-26T10:15:38.160Z,11.78
2018-03-26T10:16:38.220Z,11.72
2018-03-26T10:17:38.282Z,11.88
2018-03-26T10:18:38.342Z,11.90
2018-03-26T10:19:38.404Z,12.01
2018-03-26T10:20:38.468Z,12.05
2018-03-26T10:21:38.526Z,12.00
2018-03-26T10:22:38.586Z,12.15
2018-03-26T10:23:38.647Z,12.07
2018-03-26T10:24:38.709Z,12.36
2018-03-26T10:25:38.770Z,12.43
2018-03-26T10:26:38.833Z,12.44
2018-03-26T10:27:38.894Z,12.54
2018-03-26T10:28:38.956Z,12.41
2018-03-26T10:29:39.170Z,12.46
2018-03-26T10:30:39.079Z,12.37
2018-03-26T10:31:39.140Z,12.19
2018-03-26T10:32:39.232Z,12.26
2018-03-26T10:33:39.262Z,12.31
2018-03-26T10:34:39.323Z,12.29
2018-03-26T10:35:39.386Z,12.44
2018-03-26T10:36:39.446Z,12.46
2018-03-26T10:37:39.508Z,12.41
2018-03-26T10:38:39.572Z,12.44
2018-03-26T10:39:39.656Z,12.55
2018-03-26T10:40:39.692Z,12.38
2018-03-26T10:41:39.753Z,12.51
2018-03-26T10:42:39.815Z,12.54
2018-03-26T10:43:39.877Z,12.59
2018-03-26T10:44:39.939Z,12.49
2018-03-26T10:45:40.000Z,12.67
2018-03-26T10:46:40.063Z,12.49
2018-03-26T10:47:40.129Z,12.34
2018-03-26T10:48:40.184Z,12.19
2018-03-26T10:49:40.246Z,12.33
2018-03-26T10:50:40.308Z,12.43
2018-03-26T10:51:40.370Z,12.48
2018-03-26T10:52:41.166Z,12.62
2018-03-26T10:53:41.075Z,12.74
2018-03-26T10:54:40.557Z,13.09
2018-03-26T10:55:40.643Z,13.14
2018-03-26T10:56:40.679Z,13.27
2018-03-26T10:57:40.742Z,13.57
2018-03-26T10:58:40.805Z,13.87
2018-03-26T10:59:40.875Z,14.26
2018-03-26T11:00:40.929Z,14.54
2018-03-26T11:01:41.046Z,14.31
2018-03-26T11:02:41.056Z,14.61
2018-03-26T11:03:41.118Z,14.61
2018-03-26T11:04:41.431Z,14.46
2018-03-26T11:05:41.283Z,14.34
2018-03-26T11:06:41.309Z,13.66
2018-03-26T11:07:41.372Z,13.47
2018-03-26T11:08:41.435Z,13.22
2018-03-26T11:09:41.502Z,13.50
2018-03-26T11:10:41.566Z,13.75
2018-03-26T11:11:41.633Z,13.84
2018-03-26T11:12:41.694Z,13.59
2018-03-26T11:13:41.760Z,13.24
2018-03-26T11:14:41.821Z,13.36
2018-03-26T11:15:41.884Z,13.39
2018-03-26T11:16:41.946Z,13.59
2018-03-26T11:17:42.011Z,13.76
2018-03-26T11:18:42.075Z,13.81
2018-03-26T11:19:42.139Z,13.94
2018-03-26T11:20:42.202Z,13.98
2018-03-26T11:21:42.268Z,14.19
2018-03-26T11:22:42.358Z,14.39
2018-03-26T11:23:42.395Z,14.39
2018-03-26T11:24:42.459Z,14.36
2018-03-26T11:25:42.523Z,13.99
2018-03-26T11:26:42.592Z,13.46
2018-03-26T11:27:42.650Z,13.51
2018-03-26T11:28:42.715Z,13.79
2018-03-26T11:29:42.778Z,14.12
2018-03-26T11:30:42.843Z,14.42
2018-03-26T11:31:43.529Z,14.41
2018-03-26T11:32:43.512Z,14.42
2018-03-26T11:33:43.683Z,14.48
2018-03-26T11:34:43.100Z,14.67
2018-03-26T11:35:43.164Z,14.75
2018-03-26T11:36:43.227Z,15.13
2018-03-26T11:37:43.299Z,15.33
2018-03-26T11:38:43.358Z,15.37
2018-03-26T11:39:43.421Z,15.59
2018-03-26T11:40:43.485Z,15.86
2018-03-26T11:41:43.555Z,16.08
2018-03-26T11:42:43.615Z,15.62
2018-03-26T11:43:43.680Z,15.38
2018-03-26T11:44:43.742Z,15.60
2018-03-26T11:45:43.808Z,15.48
2018-03-26T11:46:43.874Z,15.34
2018-03-26T11:47:43.939Z,15.22
2018-03-26T11:48:44.154Z,15.15
2018-03-26T11:49:44.070Z,14.98
2018-03-26T11:50:44.133Z,15.51
2018-03-26T11:51:44.198Z,15.92
2018-03-26T11:52:44.264Z,16.36
2018-03-26T11:53:44.341Z,16.37
2018-03-26T11:54:44.394Z,16.34
2018-03-26T11:55:44.460Z,16.33
2018-03-26T11:56:44.527Z,15.85
2018-03-26T11:57:44.590Z,16.18
2018-03-26T11:58:44.656Z,16.37
2018-03-26T11:59:44.872Z,16.73
2018-03-26T12:00:44.787Z,16.81
2018-03-26T12:01:44.853Z,17.20
2018-03-26T12:02:44.920Z,17.36
2018-03-26T12:03:44.986Z,16.95
2018-03-26T12:04:45.051Z,16.65
2018-03-26T12:05:45.369Z,16.04
2018-03-26T12:06:45.185Z,15.48
2018-03-26T12:07:45.253Z,15.19
2018-03-26T12:08:45.317Z,14.72
2018-03-26T12:09:45.384Z,14.61
2018-03-26T12:10:45.449Z,14.41
2018-03-26T12:11:45.516Z,14.16
2018-03-26T12:12:45.584Z,14.19
2018-03-26T12:13:45.645Z,14.29
2018-03-26T12:14:45.712Z,14.44
2018-03-26T12:15:45.776Z,14.01
2018-03-26T12:16:45.842Z,13.38
2018-03-26T12:17:45.906Z,13.29
2018-03-26T12:18:45.970Z,13.41
2018-03-26T12:19:46.038Z,13.62
2018-03-26T12:20:46.100Z,13.87
2018-03-26T12:21:46.164Z,14.42
2018-03-26T12:22:46.229Z,14.90
2018-03-26T12:23:46.293Z,15.35
2018-03-26T12:24:46.359Z,15.59
2018-03-26T12:25:46.422Z,16.27
2018-03-26T12:26:46.486Z,16.27
2018-03-26T12:27:46.551Z,15.28
2018-03-26T12:28:46.614Z,14.80
2018-03-26T12:29:46.679Z,14.01
2018-03-26T12:30:46.745Z,13.68
2018-03-26T12:31:46.810Z,13.57
2018-03-26T12:32:46.874Z,13.38
2018-03-26T12:33:46.938Z,13.38
2018-03-26T12:34:47.002Z,13.44
2018-03-26T12:35:47.068Z,13.38
2018-03-26T12:36:47.132Z,13.39
2018-03-26T12:37:47.196Z,13.53
2018-03-26T12:38:47.259Z,13.03
2018-03-26T12:39:47.324Z,13.12
2018-03-26T12:40:47.390Z,13.36
2018-03-26T12:41:47.452Z,13.80
2018-03-26T12:42:47.517Z,13.93
2018-03-26T12:43:47.580Z,15.53
2018-03-26T12:44:47.644Z,16.41
2018-03-26T12:45:47.707Z,16.48
2018-03-26T12:46:47.770Z,17.65
2018-03-26T12:47:47.835Z,17.47
2018-03-26T12:48:48.207Z,17.99
2018-03-26T12:49:47.962Z,18.82
2018-03-26T12:50:48.029Z,19.07
2018-03-26T12:51:48.091Z,19.38
2018-03-26T12:52:48.154Z,19.62
2018-03-26T12:53:48.227Z,20.23
2018-03-26T12:54:48.311Z,19.35
2018-03-26T12:55:48.351Z,18.46
2018-03-26T12:56:48.416Z,17.51
2018-03-26T12:57:48.488Z,16.32
2018-03-26T12:58:48.582Z,15.62
2018-03-26T12:59:48.616Z,15.51
2018-03-26T13:00:48.681Z,14.82
2018-03-26T13:01:48.749Z,14.82
2018-03-26T13:02:48.964Z,14.91
2018-03-26T13:03:48.881Z,14.93
2018-03-26T13:04:48.947Z,14.95
2018-03-26T13:05:49.012Z,14.82
2018-03-26T13:06:49.081Z,14.78
2018-03-26T13:07:49.147Z,14.80
2018-03-26T13:08:49.207Z,14.45
2018-03-26T13:09:49.273Z,13.87